sensor_id;sensor_type;location;lat;lon;timestamp;pressure;altitude;pressure_sealevel;temperature;humidity
23172;BME280;11754;42.664;23.594;2022-08-06T00:02:07;95250.59;;;20.01;55.64
23172;BME280;11754;42.664;23.594;2022-08-06T00:04:33;95255.22;;;19.93;55.57
23172;BME280;11754;42.664;23.594;2022-08-06T00:06:58;95237.44;;;19.87;55.88
23172;BME280;11754;42.664;23.594;2022-08-06T00:09:24;95250.09;;;19.80;56.10
23172;BME280;11754;42.664;23.594;2022-08-06T00:11:49;95256.34;;;19.74;56.35
23172;BME280;11754;42.664;23.594;2022-08-06T00:14:15;95257.97;;;19.75;56.37
23172;BME280;11754;42.664;23.594;2022-08-06T00:16:40;95249.94;;;19.75;56.39
23172;BME280;11754;42.664;23.594;2022-08-06T00:19:06;95258.44;;;19.72;56.71
23172;BME280;11754;42.664;23.594;2022-08-06T00:21:31;95256.81;;;19.71;56.44
23172;BME280;11754;42.664;23.594;2022-08-06T00:23:57;95251.91;;;19.68;56.72
23172;BME280;11754;42.664;23.594;2022-08-06T00:26:22;95245.81;;;19.61;56.98
23172;BME280;11754;42.664;23.594;2022-08-06T00:28:49;95243.22;;;19.73;56.54
23172;BME280;11754;42.664;23.594;2022-08-06T00:31:15;95255.19;;;19.70;56.78
23172;BME280;11754;42.664;23.594;2022-08-06T00:33:40;95252.34;;;19.65;56.78
23172;BME280;11754;42.664;23.594;2022-08-06T00:36:07;95247.72;;;19.72;56.78
23172;BME280;11754;42.664;23.594;2022-08-06T00:38:32;95251.44;;;19.71;56.73
23172;BME280;11754;42.664;23.594;2022-08-06T00:40:58;95250.19;;;19.74;56.84
23172;BME280;11754;42.664;23.594;2022-08-06T00:43:25;95254.72;;;19.73;56.60
23172;BME280;11754;42.664;23.594;2022-08-06T00:45:51;95254.72;;;19.73;56.33
23172;BME280;11754;42.664;23.594;2022-08-06T00:48:16;95246.09;;;19.71;56.53
23172;BME280;11754;42.664;23.594;2022-08-06T00:50:41;95251.44;;;19.71;56.38
23172;BME280;11754;42.664;23.594;2022-08-06T00:53:07;95247.16;;;19.70;56.54
23172;BME280;11754;42.664;23.594;2022-08-06T00:55:32;95244.47;;;19.70;56.55
23172;BME280;11754;42.664;23.594;2022-08-06T00:57:58;95244.94;;;19.67;56.61
23172;BME280;11754;42.664;23.594;2022-08-06T01:00:23;95249.84;;;19.70;56.72
23172;BME280;11754;42.664;23.594;2022-08-06T01:02:49;95264.25;;;19.69;56.66
23172;BME280;11754;42.664;23.594;2022-08-06T01:05:14;95260.53;;;19.70;57.12
23172;BME280;11754;42.664;23.594;2022-08-06T01:07:39;95264.47;;;19.67;56.78
23172;BME280;11754;42.664;23.594;2022-08-06T01:10:05;95263.66;;;19.67;56.81
23172;BME280;11754;42.664;23.594;2022-08-06T01:12:31;95254.47;;;19.63;56.78
23172;BME280;11754;42.664;23.594;2022-08-06T01:14:56;95263.06;;;19.65;56.60
23172;BME280;11754;42.664;23.594;2022-08-06T01:17:27;95259.63;;;19.58;57.01
23172;BME280;11754;42.664;23.594;2022-08-06T01:26:02;95254.03;;;19.48;57.61
23172;BME280;11754;42.664;23.594;2022-08-06T01:29:00;95260.84;;;19.43;57.87
23172;BME280;11754;42.664;23.594;2022-08-06T01:31:32;95255.13;;;19.40;57.65
23172;BME280;11754;42.664;23.594;2022-08-06T01:34:13;95250.94;;;19.32;57.94
23172;BME280;11754;42.664;23.594;2022-08-06T01:36:58;95247.06;;;19.28;58.30
23172;BME280;11754;42.664;23.594;2022-08-06T01:39:25;95251.63;;;19.28;58.12
23172;BME280;11754;42.664;23.594;2022-08-06T01:41:53;95250.34;;;19.30;58.36
23172;BME280;11754;42.664;23.594;2022-08-06T01:44:21;95241.72;;;19.28;58.92
23172;BME280;11754;42.664;23.594;2022-08-06T01:46:55;95236.75;;;19.32;58.63
23172;BME280;11754;42.664;23.594;2022-08-06T01:49:27;95229.97;;;19.29;58.64
23172;BME280;11754;42.664;23.594;2022-08-06T01:51:57;95240.38;;;19.37;58.71
23172;BME280;11754;42.664;23.594;2022-08-06T01:54:23;95239.22;;;19.33;58.76
23172;BME280;11754;42.664;23.594;2022-08-06T01:56:51;95234.59;;;19.40;58.45
23172;BME280;11754;42.664;23.594;2022-08-06T01:59:21;95236.22;;;19.41;58.50
23172;BME280;11754;42.664;23.594;2022-08-06T02:01:49;95222.84;;;19.41;58.78
23172;BME280;11754;42.664;23.594;2022-08-06T02:04:17;95230.31;;;19.51;58.44
23172;BME280;11754;42.664;23.594;2022-08-06T02:06:45;95232.88;;;19.58;58.12
23172;BME280;11754;42.664;23.594;2022-08-06T02:09:16;95234.75;;;19.57;58.03
23172;BME280;11754;42.664;23.594;2022-08-06T02:11:47;95229.47;;;19.51;57.81
23172;BME280;11754;42.664;23.594;2022-08-06T02:14:14;95221.47;;;19.51;57.66
23172;BME280;11754;42.664;23.594;2022-08-06T02:16:42;95228.38;;;19.58;57.58
23172;BME280;11754;42.664;23.594;2022-08-06T02:19:09;95224.41;;;19.61;57.89
23172;BME280;11754;42.664;23.594;2022-08-06T02:21:38;95226.06;;;19.62;57.93
23172;BME280;11754;42.664;23.594;2022-08-06T02:24:07;95224.97;;;19.51;58.04
23172;BME280;11754;42.664;23.594;2022-08-06T02:26:34;95218.91;;;19.44;58.29
23172;BME280;11754;42.664;23.594;2022-08-06T02:29:04;95226.25;;;19.49;58.34
23172;BME280;11754;42.664;23.594;2022-08-06T02:31:31;95230.41;;;19.44;58.48
23172;BME280;11754;42.664;23.594;2022-08-06T02:33:56;95224.25;;;19.44;58.57
23172;BME280;11754;42.664;23.594;2022-08-06T02:36:36;95228.63;;;19.38;58.80
23172;BME280;11754;42.664;23.594;2022-08-06T02:39:06;95236.75;;;19.32;58.88
23172;BME280;11754;42.664;23.594;2022-08-06T02:41:42;95232.41;;;19.19;59.34
23172;BME280;11754;42.664;23.594;2022-08-06T02:44:15;95229.13;;;19.17;59.69
23172;BME280;11754;42.664;23.594;2022-08-06T02:46:48;95230.03;;;19.11;60.00
23172;BME280;11754;42.664;23.594;2022-08-06T02:49:26;95221.50;;;19.02;60.16
23172;BME280;11754;42.664;23.594;2022-08-06T02:51:58;95234.56;;;19.10;60.39
23172;BME280;11754;42.664;23.594;2022-08-06T02:54:39;95236.22;;;19.11;60.23
23172;BME280;11754;42.664;23.594;2022-08-06T02:57:14;95234.91;;;19.14;60.36
23172;BME280;11754;42.664;23.594;2022-08-06T02:59:45;95230.94;;;19.05;60.72
23172;BME280;11754;42.664;23.594;2022-08-06T03:02:11;95239.72;;;18.93;60.75
23172;BME280;11754;42.664;23.594;2022-08-06T03:04:40;95242.16;;;18.95;60.92
23172;BME280;11754;42.664;23.594;2022-08-06T03:07:08;95238.50;;;18.89;61.12
23172;BME280;11754;42.664;23.594;2022-08-06T03:09:35;95229.53;;;18.84;61.28
23172;BME280;11754;42.664;23.594;2022-08-06T03:12:02;95242.09;;;18.83;61.42
23172;BME280;11754;42.664;23.594;2022-08-06T03:14:29;95242.31;;;18.82;61.52
23172;BME280;11754;42.664;23.594;2022-08-06T03:16:58;95242.75;;;18.79;61.92
23172;BME280;11754;42.664;23.594;2022-08-06T03:19:25;95237.03;;;18.75;61.78
23172;BME280;11754;42.664;23.594;2022-08-06T03:21:52;95244.03;;;18.76;61.91
23172;BME280;11754;42.664;23.594;2022-08-06T03:24:18;95235.84;;;18.71;61.94
23172;BME280;11754;42.664;23.594;2022-08-06T03:26:45;95246.53;;;18.71;61.75
23172;BME280;11754;42.664;23.594;2022-08-06T03:29:11;95246.09;;;18.74;61.73
23172;BME280;11754;42.664;23.594;2022-08-06T03:31:37;95256.78;;;18.74;61.68
23172;BME280;11754;42.664;23.594;2022-08-06T03:34:04;95252.75;;;18.65;61.85
23172;BME280;11754;42.664;23.594;2022-08-06T03:36:30;95252.13;;;18.63;61.95
23172;BME280;11754;42.664;23.594;2022-08-06T03:39:02;95248.28;;;18.59;62.08
23172;BME280;11754;42.664;23.594;2022-08-06T03:41:30;95250.50;;;18.62;62.18
23172;BME280;11754;42.664;23.594;2022-08-06T03:43:57;95251.19;;;18.57;61.99
23172;BME280;11754;42.664;23.594;2022-08-06T03:46:26;95252.44;;;18.55;62.06
23172;BME280;11754;42.664;23.594;2022-08-06T03:48:54;95254.06;;;18.56;62.20
23172;BME280;11754;42.664;23.594;2022-08-06T03:51:24;95254.50;;;18.53;62.12
23172;BME280;11754;42.664;23.594;2022-08-06T03:53:51;95265.94;;;18.60;61.98
23172;BME280;11754;42.664;23.594;2022-08-06T03:56:23;95253.19;;;18.62;61.99
23172;BME280;11754;42.664;23.594;2022-08-06T03:58:50;95262.00;;;18.62;61.88
23172;BME280;11754;42.664;23.594;2022-08-06T04:01:23;95256.88;;;18.61;62.04
23172;BME280;11754;42.664;23.594;2022-08-06T04:03:52;95260.91;;;18.70;61.62
23172;BME280;11754;42.664;23.594;2022-08-06T04:06:20;95264.25;;;18.65;61.87
23172;BME280;11754;42.664;23.594;2022-08-06T04:08:48;95267.28;;;18.69;61.70
23172;BME280;11754;42.664;23.594;2022-08-06T04:11:15;95265.03;;;18.72;61.67
23172;BME280;11754;42.664;23.594;2022-08-06T04:13:42;95258.91;;;18.65;61.53
23172;BME280;11754;42.664;23.594;2022-08-06T04:16:10;95275.06;;;18.70;61.56
23172;BME280;11754;42.664;23.594;2022-08-06T04:18:38;95271.19;;;18.73;61.48
23172;BME280;11754;42.664;23.594;2022-08-06T04:21:10;95269.84;;;18.82;61.37
23172;BME280;11754;42.664;23.594;2022-08-06T04:23:36;95269.31;;;18.92;60.97
23172;BME280;11754;42.664;23.594;2022-08-06T04:26:06;95279.50;;;19.02;60.57
23172;BME280;11754;42.664;23.594;2022-08-06T04:28:34;95285.13;;;19.12;60.53
23172;BME280;11754;42.664;23.594;2022-08-06T04:31:00;95279.69;;;19.18;60.36
23172;BME280;11754;42.664;23.594;2022-08-06T04:33:27;95284.31;;;19.30;59.75
23172;BME280;11754;42.664;23.594;2022-08-06T04:35:54;95281.06;;;19.39;59.47
23172;BME280;11754;42.664;23.594;2022-08-06T04:38:21;95273.94;;;19.52;59.05
23172;BME280;11754;42.664;23.594;2022-08-06T04:40:48;95287.75;;;19.67;58.75
23172;BME280;11754;42.664;23.594;2022-08-06T04:43:15;95292.91;;;19.80;58.54
23172;BME280;11754;42.664;23.594;2022-08-06T04:45:42;95296.88;;;19.89;58.13
23172;BME280;11754;42.664;23.594;2022-08-06T04:48:09;95295.06;;;20.02;57.96
23172;BME280;11754;42.664;23.594;2022-08-06T04:50:36;95289.72;;;20.02;58.42
23172;BME280;11754;42.664;23.594;2022-08-06T04:53:13;95296.59;;;20.09;58.67
23172;BME280;11754;42.664;23.594;2022-08-06T04:55:40;95296.00;;;20.19;58.66
23172;BME280;11754;42.664;23.594;2022-08-06T04:58:07;95292.56;;;20.30;58.88
23172;BME280;11754;42.664;23.594;2022-08-06T05:00:36;95306.31;;;20.46;58.55
23172;BME280;11754;42.664;23.594;2022-08-06T05:03:02;95309.47;;;20.54;58.12
23172;BME280;11754;42.664;23.594;2022-08-06T05:05:31;95310.16;;;20.61;57.34
23172;BME280;11754;42.664;23.594;2022-08-06T05:08:00;95305.16;;;20.65;57.24
23172;BME280;11754;42.664;23.594;2022-08-06T05:10:33;95302.72;;;20.75;57.00
23172;BME280;11754;42.664;23.594;2022-08-06T05:13:01;95315.06;;;20.88;56.05
23172;BME280;11754;42.664;23.594;2022-08-06T05:15:32;95307.00;;;21.00;55.99
23172;BME280;11754;42.664;23.594;2022-08-06T05:18:07;95302.91;;;21.09;55.34
23172;BME280;11754;42.664;23.594;2022-08-06T05:20:35;95303.75;;;20.98;55.39
23172;BME280;11754;42.664;23.594;2022-08-06T05:23:09;95303.63;;;21.04;55.16
23172;BME280;11754;42.664;23.594;2022-08-06T05:25:37;95307.88;;;21.29;54.49
23172;BME280;11754;42.664;23.594;2022-08-06T05:28:04;95305.78;;;21.43;54.01
23172;BME280;11754;42.664;23.594;2022-08-06T05:30:30;95312.16;;;21.53;53.84
23172;BME280;11754;42.664;23.594;2022-08-06T05:32:55;95300.31;;;21.66;53.49
23172;BME280;11754;42.664;23.594;2022-08-06T05:35:21;95304.25;;;21.75;52.96
23172;BME280;11754;42.664;23.594;2022-08-06T05:37:47;95312.72;;;21.84;53.21
23172;BME280;11754;42.664;23.594;2022-08-06T05:40:12;95302.34;;;21.88;53.38
23172;BME280;11754;42.664;23.594;2022-08-06T05:42:38;95309.03;;;22.02;53.21
23172;BME280;11754;42.664;23.594;2022-08-06T05:45:03;95310.81;;;22.13;52.70
23172;BME280;11754;42.664;23.594;2022-08-06T05:47:34;95302.25;;;22.28;52.73
23172;BME280;11754;42.664;23.594;2022-08-06T05:50:18;95295.75;;;22.41;52.20
23172;BME280;11754;42.664;23.594;2022-08-06T05:52:54;95307.22;;;22.53;51.95
23172;BME280;11754;42.664;23.594;2022-08-06T05:55:27;95303.56;;;22.59;51.98
23172;BME280;11754;42.664;23.594;2022-08-06T05:58:01;95298.00;;;22.49;51.89
23172;BME280;11754;42.664;23.594;2022-08-06T06:00:31;95293.28;;;22.56;52.27
23172;BME280;11754;42.664;23.594;2022-08-06T06:02:59;95294.25;;;22.50;51.99
23172;BME280;11754;42.664;23.594;2022-08-06T06:05:26;95308.66;;;22.61;52.28
23172;BME280;11754;42.664;23.594;2022-08-06T06:07:52;95300.09;;;22.81;51.95
23172;BME280;11754;42.664;23.594;2022-08-06T06:10:23;95295.84;;;22.85;52.06
23172;BME280;11754;42.664;23.594;2022-08-06T06:12:49;95299.81;;;22.94;52.39
23172;BME280;11754;42.664;23.594;2022-08-06T06:15:16;95289.72;;;23.06;51.95
23172;BME280;11754;42.664;23.594;2022-08-06T06:20:22;95294.56;;;23.48;50.81
23172;BME280;11754;42.664;23.594;2022-08-06T06:22:59;95286.22;;;23.49;50.47
23172;BME280;11754;42.664;23.594;2022-08-06T06:34:20;95277.00;;;24.21;48.99
23172;BME280;11754;42.664;23.594;2022-08-06T06:37:05;95280.34;;;24.34;48.75
23172;BME280;11754;42.664;23.594;2022-08-06T06:39:48;95274.56;;;24.52;48.17
23172;BME280;11754;42.664;23.594;2022-08-06T06:42:39;95278.75;;;24.70;47.38
23172;BME280;11754;42.664;23.594;2022-08-06T06:45:08;95271.56;;;24.86;46.39
23172;BME280;11754;42.664;23.594;2022-08-06T06:47:47;95258.69;;;24.98;46.53
23172;BME280;11754;42.664;23.594;2022-08-06T06:50:26;95253.94;;;25.15;46.64
23172;BME280;11754;42.664;23.594;2022-08-06T06:52:53;95256.41;;;25.27;44.98
23172;BME280;11754;42.664;23.594;2022-08-06T06:58:23;95257.88;;;25.55;46.10
23172;BME280;11754;42.664;23.594;2022-08-06T07:00:52;95241.38;;;25.52;45.50
23172;BME280;11754;42.664;23.594;2022-08-06T07:03:19;95255.75;;;25.73;45.29
23172;BME280;11754;42.664;23.594;2022-08-06T07:05:48;95249.31;;;25.84;44.90
23172;BME280;11754;42.664;23.594;2022-08-06T07:08:18;95248.00;;;25.97;44.63
23172;BME280;11754;42.664;23.594;2022-08-06T07:10:44;95256.41;;;26.16;44.35
23172;BME280;11754;42.664;23.594;2022-08-06T07:13:11;95251.53;;;26.28;44.66
23172;BME280;11754;42.664;23.594;2022-08-06T07:15:38;95229.88;;;26.18;43.82
23172;BME280;11754;42.664;23.594;2022-08-06T07:18:06;95244.75;;;26.35;43.58
23172;BME280;11754;42.664;23.594;2022-08-06T07:20:33;95241.81;;;26.47;43.21
23172;BME280;11754;42.664;23.594;2022-08-06T07:23:04;95243.97;;;26.60;43.38
23172;BME280;11754;42.664;23.594;2022-08-06T07:25:34;95239.38;;;26.56;43.88
23172;BME280;11754;42.664;23.594;2022-08-06T07:28:03;95239.63;;;26.44;43.52
23172;BME280;11754;42.664;23.594;2022-08-06T07:30:30;95238.53;;;26.35;43.93
23172;BME280;11754;42.664;23.594;2022-08-06T07:32:58;95238.53;;;26.45;43.63
23172;BME280;11754;42.664;23.594;2022-08-06T07:35:24;95238.00;;;26.64;43.46
23172;BME280;11754;42.664;23.594;2022-08-06T07:37:59;95226.06;;;26.75;43.43
23172;BME280;11754;42.664;23.594;2022-08-06T07:40:52;95215.50;;;26.89;43.18
23172;BME280;11754;42.664;23.594;2022-08-06T07:43:31;95224.88;;;27.22;42.38
23172;BME280;11754;42.664;23.594;2022-08-06T07:46:00;95226.44;;;27.33;41.24
23172;BME280;11754;42.664;23.594;2022-08-06T07:48:47;95226.19;;;27.29;41.40
23172;BME280;11754;42.664;23.594;2022-08-06T07:51:15;95232.38;;;27.40;41.58
23172;BME280;11754;42.664;23.594;2022-08-06T07:53:41;95220.47;;;27.41;41.55
23172;BME280;11754;42.664;23.594;2022-08-06T07:56:08;95214.41;;;27.60;40.93
23172;BME280;11754;42.664;23.594;2022-08-06T07:58:35;95221.63;;;27.74;40.39
23172;BME280;11754;42.664;23.594;2022-08-06T08:01:02;95224.41;;;28.09;39.37
23172;BME280;11754;42.664;23.594;2022-08-06T08:03:28;95223.63;;;28.03;39.55
23172;BME280;11754;42.664;23.594;2022-08-06T08:06:14;95216.56;;;28.07;38.98
23172;BME280;11754;42.664;23.594;2022-08-06T08:08:46;95220.41;;;28.35;38.69
23172;BME280;11754;42.664;23.594;2022-08-06T08:11:14;95220.56;;;28.49;38.43
23172;BME280;11754;42.664;23.594;2022-08-06T08:13:41;95206.91;;;28.59;38.05
23172;BME280;11754;42.664;23.594;2022-08-06T08:16:08;95211.19;;;28.65;37.66
23172;BME280;11754;42.664;23.594;2022-08-06T08:18:34;95212.81;;;28.90;37.69
23172;BME280;11754;42.664;23.594;2022-08-06T08:21:01;95211.34;;;29.27;37.29
23172;BME280;11754;42.664;23.594;2022-08-06T08:23:28;95212.78;;;29.43;36.04
23172;BME280;11754;42.664;23.594;2022-08-06T08:25:58;95205.19;;;29.83;35.65
23172;BME280;11754;42.664;23.594;2022-08-06T08:28:23;95209.41;;;30.08;36.27
23172;BME280;11754;42.664;23.594;2022-08-06T08:30:49;95210.66;;;30.16;34.16
23172;BME280;11754;42.664;23.594;2022-08-06T08:33:14;95209.84;;;30.34;34.87
23172;BME280;11754;42.664;23.594;2022-08-06T08:35:41;95206.97;;;30.72;34.95
23172;BME280;11754;42.664;23.594;2022-08-06T08:38:06;95198.41;;;30.65;34.09
23172;BME280;11754;42.664;23.594;2022-08-06T08:40:34;95193.84;;;31.07;33.20
23172;BME280;11754;42.664;23.594;2022-08-06T08:43:02;95203.53;;;31.27;33.78
23172;BME280;11754;42.664;23.594;2022-08-06T08:45:28;95198.63;;;31.65;33.29
23172;BME280;11754;42.664;23.594;2022-08-06T08:47:56;95184.81;;;31.98;32.79
23172;BME280;11754;42.664;23.594;2022-08-06T08:50:25;95178.63;;;32.28;31.99
23172;BME280;11754;42.664;23.594;2022-08-06T08:53:09;95189.69;;;32.46;30.45
23172;BME280;11754;42.664;23.594;2022-08-06T08:55:35;95182.13;;;32.74;30.85
23172;BME280;11754;42.664;23.594;2022-08-06T08:58:00;95192.25;;;33.13;30.15
23172;BME280;11754;42.664;23.594;2022-08-06T09:00:27;95184.28;;;33.43;30.57
23172;BME280;11754;42.664;23.594;2022-08-06T09:02:52;95184.38;;;33.78;29.22
23172;BME280;11754;42.664;23.594;2022-08-06T09:05:18;95182.63;;;34.08;28.21
23172;BME280;11754;42.664;23.594;2022-08-06T09:07:45;95171.53;;;34.04;27.72
23172;BME280;11754;42.664;23.594;2022-08-06T09:10:11;95177.16;;;34.25;28.15
23172;BME280;11754;42.664;23.594;2022-08-06T09:12:37;95165.50;;;34.63;27.47
23172;BME280;11754;42.664;23.594;2022-08-06T09:15:03;95170.13;;;35.18;27.17
23172;BME280;11754;42.664;23.594;2022-08-06T09:17:29;95179.56;;;34.91;27.09
23172;BME280;11754;42.664;23.594;2022-08-06T09:19:55;95167.59;;;34.57;27.48
23172;BME280;11754;42.664;23.594;2022-08-06T09:22:21;95162.28;;;34.61;26.72
23172;BME280;11754;42.664;23.594;2022-08-06T09:24:46;95161.38;;;34.95;25.95
23172;BME280;11754;42.664;23.594;2022-08-06T09:27:16;95158.72;;;35.67;25.90
23172;BME280;11754;42.664;23.594;2022-08-06T09:29:59;95154.94;;;36.55;25.33
23172;BME280;11754;42.664;23.594;2022-08-06T09:32:41;95151.91;;;37.30;24.96
23172;BME280;11754;42.664;23.594;2022-08-06T09:35:27;95147.88;;;38.17;24.63
23172;BME280;11754;42.664;23.594;2022-08-06T09:38:02;95154.44;;;39.32;23.12
23172;BME280;11754;42.664;23.594;2022-08-06T09:40:28;95126.88;;;40.06;21.93
23172;BME280;11754;42.664;23.594;2022-08-06T09:42:53;95129.19;;;40.85;20.63
23172;BME280;11754;42.664;23.594;2022-08-06T09:45:21;95124.47;;;41.88;19.73
23172;BME280;11754;42.664;23.594;2022-08-06T09:47:49;95136.38;;;42.97;17.44
23172;BME280;11754;42.664;23.594;2022-08-06T09:50:14;95116.16;;;44.25;16.28
23172;BME280;11754;42.664;23.594;2022-08-06T09:53:01;95118.34;;;45.14;15.21
23172;BME280;11754;42.664;23.594;2022-08-06T09:55:28;95122.09;;;46.97;13.95
23172;BME280;11754;42.664;23.594;2022-08-06T09:57:54;95128.75;;;48.31;13.11
23172;BME280;11754;42.664;23.594;2022-08-06T10:00:29;95110.13;;;50.52;11.15
23172;BME280;11754;42.664;23.594;2022-08-06T10:03:03;95111.84;;;52.77;10.21
23172;BME280;11754;42.664;23.594;2022-08-06T10:05:29;95102.50;;;54.54;9.17
23172;BME280;11754;42.664;23.594;2022-08-06T10:08:06;95085.94;;;53.07;9.17
23172;BME280;11754;42.664;23.594;2022-08-06T10:13:26;95098.41;;;53.67;9.20
23172;BME280;11754;42.664;23.594;2022-08-06T10:15:57;95096.06;;;56.07;8.54
23172;BME280;11754;42.664;23.594;2022-08-06T10:18:42;95082.91;;;59.80;6.83
23172;BME280;11754;42.664;23.594;2022-08-06T10:21:10;95070.00;;;62.48;5.43
23172;BME280;11754;42.664;23.594;2022-08-06T10:23:38;95067.41;;;62.38;4.74
23172;BME280;11754;42.664;23.594;2022-08-06T10:26:08;95067.91;;;62.99;5.15
23172;BME280;11754;42.664;23.594;2022-08-06T10:28:37;95060.56;;;64.25;4.18
23172;BME280;11754;42.664;23.594;2022-08-06T10:31:05;95056.97;;;63.72;4.85
23172;BME280;11754;42.664;23.594;2022-08-06T10:33:33;95055.03;;;65.61;4.67
23172;BME280;11754;42.664;23.594;2022-08-06T10:36:04;95047.91;;;62.31;4.77
23172;BME280;11754;42.664;23.594;2022-08-06T10:38:34;95035.88;;;58.67;6.15
23172;BME280;11754;42.664;23.594;2022-08-06T10:41:05;95044.38;;;56.16;7.35
23172;BME280;11754;42.664;23.594;2022-08-06T10:43:34;95039.94;;;56.24;7.79
23172;BME280;11754;42.664;23.594;2022-08-06T10:46:04;95039.31;;;55.01;8.23
23172;BME280;11754;42.664;23.594;2022-08-06T10:48:30;95032.31;;;52.73;9.14
23172;BME280;11754;42.664;23.594;2022-08-06T10:50:56;95046.75;;;50.71;10.48
23172;BME280;11754;42.664;23.594;2022-08-06T10:53:22;95034.94;;;49.04;11.11
23172;BME280;11754;42.664;23.594;2022-08-06T10:55:48;95038.28;;;48.68;11.28
23172;BME280;11754;42.664;23.594;2022-08-06T10:58:14;95034.75;;;51.03;10.33
23172;BME280;11754;42.664;23.594;2022-08-06T11:00:41;95033.88;;;52.23;9.34
23172;BME280;11754;42.664;23.594;2022-08-06T11:03:19;95022.66;;;52.48;9.18
23172;BME280;11754;42.664;23.594;2022-08-06T11:05:55;95025.53;;;51.64;9.32
23172;BME280;11754;42.664;23.594;2022-08-06T11:16:05;95019.13;;;59.05;6.31
23172;BME280;11754;42.664;23.594;2022-08-06T11:18:31;95026.22;;;60.34;5.90
23172;BME280;11754;42.664;23.594;2022-08-06T11:20:56;95024.94;;;63.27;5.23
23172;BME280;11754;42.664;23.594;2022-08-06T11:23:30;95031.19;;;63.08;4.97
23172;BME280;11754;42.664;23.594;2022-08-06T11:25:58;95031.22;;;60.39;5.69
23172;BME280;11754;42.664;23.594;2022-08-06T11:30:54;95025.38;;;53.82;8.42
23172;BME280;11754;42.664;23.594;2022-08-06T11:35:57;95024.13;;;59.30;6.02
23172;BME280;11754;42.664;23.594;2022-08-06T11:41:17;95041.75;;;65.58;3.97
23172;BME280;11754;42.664;23.594;2022-08-06T11:54:28;95041.69;;;64.96;4.29
23172;BME280;11754;42.664;23.594;2022-08-06T11:59:35;95043.41;;;68.86;2.94
23172;BME280;11754;42.664;23.594;2022-08-06T12:02:03;95041.09;;;70.01;3.03
23172;BME280;11754;42.664;23.594;2022-08-06T12:09:38;95009.38;;;72.72;2.20
23172;BME280;11754;42.664;23.594;2022-08-06T12:14:48;95015.25;;;73.41;1.44
23172;BME280;11754;42.664;23.594;2022-08-06T12:17:13;95011.81;;;73.70;1.31
23172;BME280;11754;42.664;23.594;2022-08-06T12:19:47;95014.41;;;74.76;1.19
23172;BME280;11754;42.664;23.594;2022-08-06T12:22:13;95005.03;;;76.04;0.62
23172;BME280;11754;42.664;23.594;2022-08-06T12:24:42;95005.28;;;77.23;0.45
23172;BME280;11754;42.664;23.594;2022-08-06T12:27:10;94997.84;;;77.76;0.68
23172;BME280;11754;42.664;23.594;2022-08-06T12:29:38;94986.09;;;78.45;0.43
23172;BME280;11754;42.664;23.594;2022-08-06T12:32:23;94976.44;;;79.03;0.35
23172;BME280;11754;42.664;23.594;2022-08-06T12:34:53;94967.25;;;79.21;0.18
23172;BME280;11754;42.664;23.594;2022-08-06T12:37:19;94974.28;;;79.41;0.00
23172;BME280;11754;42.664;23.594;2022-08-06T12:39:45;94969.34;;;79.32;0.00
23172;BME280;11754;42.664;23.594;2022-08-06T12:42:30;94963.69;;;79.10;0.08
23172;BME280;11754;42.664;23.594;2022-08-06T12:44:56;94968.88;;;79.49;0.00
23172;BME280;11754;42.664;23.594;2022-08-06T12:47:23;94975.69;;;79.65;0.00
23172;BME280;11754;42.664;23.594;2022-08-06T12:49:51;94962.34;;;79.62;0.00
23172;BME280;11754;42.664;23.594;2022-08-06T12:52:19;94973.53;;;79.80;0.00
23172;BME280;11754;42.664;23.594;2022-08-06T12:54:49;94954.59;;;79.30;0.00
23172;BME280;11754;42.664;23.594;2022-08-06T12:57:22;94955.91;;;75.69;0.68
23172;BME280;11754;42.664;23.594;2022-08-06T12:59:49;94956.16;;;71.03;1.64
23172;BME280;11754;42.664;23.594;2022-08-06T13:02:17;94946.34;;;68.39;2.26
23172;BME280;11754;42.664;23.594;2022-08-06T13:04:47;94964.09;;;70.11;1.79
23172;BME280;11754;42.664;23.594;2022-08-06T13:07:14;94953.94;;;71.19;1.57
23172;BME280;11754;42.664;23.594;2022-08-06T13:09:42;94962.81;;;72.02;1.88
23172;BME280;11754;42.664;23.594;2022-08-06T13:12:16;94967.88;;;73.21;0.92
23172;BME280;11754;42.664;23.594;2022-08-06T13:14:53;94970.53;;;73.27;1.06
23172;BME280;11754;42.664;23.594;2022-08-06T13:17:19;94947.34;;;70.63;1.88
23172;BME280;11754;42.664;23.594;2022-08-06T13:19:55;94942.31;;;66.84;2.85
23172;BME280;11754;42.664;23.594;2022-08-06T13:22:21;94954.38;;;66.69;3.42
23172;BME280;11754;42.664;23.594;2022-08-06T13:24:48;94940.97;;;67.25;3.00
23172;BME280;11754;42.664;23.594;2022-08-06T13:27:14;94958.69;;;65.09;3.65
23172;BME280;11754;42.664;23.594;2022-08-06T13:29:59;94952.84;;;62.53;4.26
23172;BME280;11754;42.664;23.594;2022-08-06T13:32:26;94955.09;;;61.42;4.59
23172;BME280;11754;42.664;23.594;2022-08-06T13:34:54;94962.34;;;59.31;5.75
23172;BME280;11754;42.664;23.594;2022-08-06T13:37:50;94966.44;;;57.89;6.14
23172;BME280;11754;42.664;23.594;2022-08-06T13:40:17;94973.13;;;58.86;5.68
23172;BME280;11754;42.664;23.594;2022-08-06T13:42:55;94964.34;;;60.29;5.60
23172;BME280;11754;42.664;23.594;2022-08-06T13:45:25;94947.03;;;60.32;5.38
23172;BME280;11754;42.664;23.594;2022-08-06T13:48:05;94958.06;;;58.80;6.22
23172;BME280;11754;42.664;23.594;2022-08-06T13:50:36;94956.59;;;56.25;7.04
23172;BME280;11754;42.664;23.594;2022-08-06T13:53:03;94946.44;;;53.60;8.10
23172;BME280;11754;42.664;23.594;2022-08-06T13:55:29;94962.22;;;51.31;9.50
23172;BME280;11754;42.664;23.594;2022-08-06T13:57:56;94963.38;;;48.79;10.52
23172;BME280;11754;42.664;23.594;2022-08-06T14:00:22;94966.59;;;46.98;11.76
23172;BME280;11754;42.664;23.594;2022-08-06T14:02:48;94976.59;;;45.73;12.62
23172;BME280;11754;42.664;23.594;2022-08-06T14:05:13;94967.72;;;44.47;13.53